Castleconnell, Ireland

6:09 AM IST on June 23, 2017 (GMT +0100)
Clare Glens, Newport | | Change Station

Elev 367 ft 52.69 °N, 8.39 °W | Updated 24 seconds ago

Rain
Rain
56.8 °F
Feels Like 56.8 °F
N
9.0
Wind Variable Wind from SSW
Gusts 13.0 mph

Today
High -- | Low -- °F
--% Chance of Precip.
Yesterday
High -- | Low -- °F
Precip. -- in
Pressure 29.86 in
Visibility 5.0 miles
Clouds Scattered Clouds 800 ft
Mostly Cloudy 1800 ft
Dew Point 55 °F
Humidity 95%
Rainfall 0.04 in
Snow Depth Not available.
5:10 AM 10:02 PM
Waning Crescent, 1% visible
METAR EINN 230500Z 23017KT 8000 -RADZ SCT008 BKN018 15/14 Q1011 TEMPO 4000 BKN008
Pressure 29.86 in
Visibility 5.0 miles
Clouds Scattered Clouds 800 ft
Mostly Cloudy 1800 ft
Dew Point 55 °F
Humidity 95%
Rainfall 0.04 in
Snow Depth Not available.
5:10 AM 10:02 PM
Waning Crescent, 1% visible
METAR EINN 230500Z 23017KT 8000 -RADZ SCT008 BKN018 15/14 Q1011 TEMPO 4000 BKN008

Get Severe Weather Alerts

Thanks for signing up!

Be on the lookout for a verification email in your inbox.

You'll start receiving the daily forecast at 6 AM.

×

10-Day Weather Forecast

×

Almanac

Astronomy

Jun. 23, 2017 Rise Set
Actual Time
Civil Twilight
Nautical Twilight
Astronomical Twilight
Moon
Length of Visible Light
Length of Day
Tomorrow will be .
, % of the Moon is Illuminated

Today's Extremes

Country Highs Country Lows

Community

WunderPhotos

Category 6

Welcome to Category 6. This is the collective home for Weather Underground's featured writeups by Dr. Jeff Masters (right), Bob Henson (left), Chris Burt, and other regular contributors.

Nearby

Air Quality

  Air Quality AQ Index Pollutant
Not available.

Snow Depth

Station Depth Elevation

Earthquake Activity

City Distance Mag. Time & Date
Minimum magnitude displayed is 2.5.

Coastal Water Temperatures

Place Temperature

Stations

Nearby Weather Stations

Station Location Temp. Windchill Dew Point Humidity Wind Precip. Elev Updated Type